Warm Springs Summit, Nevada Weather observations

Data are for observation ending at time listed.
 Day   Time    Ave.   Ave.  Ave.  Vector   Max.   Stn.    Total    Solar   Ave.  
  of    of     Air    Rel.  Wind   Wind    Wind   Baro.  Precip.   Rad.    Soil  
Year   Day     Temp.  Hum.  Speed  Dir.    Gust   Pres.                    Temp. 
2015   (PST)    F      %     mph   deg.    mph     mb.     in.     W/m2     F   
------------------------------------------------------------------------------
 116   21:00   34.2    50    9.2     2     25.6   773.5    0.00       0    54.2
 116   21:10   34.1    51    7.7   273     16.6   773.5    0.00       0    54.0
 116   21:20   34.0    52    7.2   207     17.2   773.6    0.00       0    53.8
 116   21:30   33.8    52    7.9   254     15.8   774.0    0.00       0    53.7
 116   21:40   33.7    52    5.5   294     13.8   774.2    0.00       0    53.5
 116   21:50   33.6    53    4.8   310     15.0   774.0    0.00       0    53.3
 116   22:00   33.4    53    5.3   266     13.9   773.9    0.00       0    53.1
 116   22:10   33.3    54    5.4   243     13.9   774.1    0.00       0    53.0
 116   22:20   33.1    54    5.2   280     10.3   774.2    0.00       0    52.8
 116   22:30   33.3    54    5.8   276     12.7   774.3    0.00       0    52.6
 116   22:40   33.3    54    5.8   302     13.7   774.3    0.00       0    52.4
 116   22:50   33.3    54    5.6   268     12.2   774.3    0.00       0    52.3
 116   23:00   33.2    54    5.7   242     16.3   774.3    0.00       0    52.1
 116   23:10   33.2    54    6.7   247     11.4   774.2    0.00       0    52.0
 116   23:20   33.1    54    6.9   261     15.5   774.3    0.00       0    51.8
 116   23:30   33.0    55    6.8   272     14.6   774.2    0.00       0    51.6
 116   23:40   32.7    55    5.2   312     14.1   774.1    0.00       0    51.5
 116   23:50   32.6    55    5.2   261     13.1   774.1    0.00       0    51.3
 117    0:00   32.7    55    6.5   269     16.3   774.0    0.00       0    51.2
 117    0:10   32.6    55    5.3   297     11.4   774.2    0.00       0    51.0
 117    0:20   32.5    56    3.6   296      9.0   774.3    0.00       0    50.9
 117    0:30   32.5    56    4.4   343     15.8   774.1    0.00       0    50.7
 117    0:40   32.5    56    4.4   323     17.0   774.1    0.00       0    50.6
 117    0:50   32.0    57    3.5    25      9.9   774.2    0.00       0    50.4
 117    1:00   31.7    58    5.6    40     12.0   774.1    0.00       0    50.3
 117    1:10   31.7    58    4.4   301     13.6   774.0    0.00       0    50.1
 117    1:20   31.4    59    4.3   256      9.0   774.0    0.00       0    50.0
 117    1:30   31.3    59    4.3   277      9.6   774.0    0.00       0    49.9
 117    1:40   31.2    60    4.9   292     11.2   774.0    0.00       0    49.7
 117    1:50   30.7    60    4.3   297      9.1   774.0    0.00       0    49.6
 117    2:00   30.6    60    4.6   278      8.2   774.0    0.00       0    49.5
 117    2:10   30.7    60    4.2   273     10.1   774.1    0.00       0    49.4
 117    2:20   30.8    60    4.2   255      9.1   774.0    0.00       0    49.2
 117    2:30   30.9    59    5.0   263     11.4   774.0    0.00       0    49.1
 117    2:40   31.1    58    4.9   247     12.8   773.9    0.00       0    49.0
 117    2:50   31.7    54    5.5   270     12.8   774.0    0.00       0    48.8
 117    3:00   31.7    52    6.3   264     13.1   774.1    0.00       0    48.7
 117    3:10   31.8    49    6.7   266     14.0   773.9    0.00       0    48.6
 117    3:20   32.0    46    8.1   244     18.0   773.9    0.00       0    48.5
 117    3:30   32.0    46    5.9   254     12.9   774.1    0.00       0    48.4
 117    3:40   31.7    47    6.8   255     12.0   774.2    0.00       0    48.2
 117    3:50   31.6    47    4.4   350     14.2   774.3    0.00       0    48.1
 117    4:00   31.4    47    5.2   325     18.5   774.3    0.00       0    48.0
 117    4:10   30.9    48    4.5   274     12.3   774.3    0.00       0    47.9
 117    4:20   30.3    50    5.4   307     12.7   774.2    0.00       0    47.8
 117    4:30   30.4    50    6.2   249     12.1   774.3    0.00       0    47.7
 117    4:40   30.5    49    4.1   306     11.6   774.5    0.00       1    47.6
 117    4:50   30.1    50    3.3   290      9.9   774.7    0.00       4    47.4
 117    5:00   30.5    49    2.7     4      6.9   774.7    0.00       9    47.3
 117    5:10   31.2    47    3.7    23     11.0   774.6    0.00      23    47.2
 117    5:20   32.2    44    4.3    16     15.8   774.5    0.00      44    47.1
 117    5:30   32.8    43    6.4    35     16.9   774.6    0.00      85    47.0
 117    5:40   33.3    42    5.3     5     11.7   774.5    0.00     129    46.9
 117    5:50   33.9    40    4.9   354     13.9   774.6    0.00     161    46.8
 117    6:00   34.6    40    5.1    20     12.2   774.7    0.00     196    46.7
 117    6:10   35.1    39    4.4   321     11.1   774.8    0.00     231    46.6
 117    6:20   35.8    37    5.4     9     12.6   775.0    0.00     267    46.5
 117    6:30   35.9    38    5.5    40     13.1   775.1    0.00     304    46.4
 117    6:40   36.4    37    6.3    34     14.2   775.3    0.00     340    46.3
 117    6:50   36.5    37    4.7    23     13.6   775.3    0.00     377    46.3
 117    7:00   38.0    34    3.4   358      9.3   775.4    0.00     414    46.2
 117    7:10   38.5    34    6.8    51     15.8   775.5    0.00     450    46.1
 117    7:20   37.8    35    7.9    53     15.0   775.6    0.00     486    46.1
 117    7:30   38.5    34    6.4    44     14.2   775.7    0.00     522    46.1
 117    7:40   39.5    34    7.7    58     13.3   775.8    0.00     557    46.1
 117    7:50   39.3    33   10.2    58     18.6   775.7    0.00     591    46.1
 117    8:00   39.3    33   10.8    56     18.0   775.7    0.00     626    46.1
 117    8:10   39.7    33   10.4    56     19.6   775.7    0.00     658    46.1
 117    8:20   40.0    32   13.6    58     20.7   775.6    0.00     690    46.2
 117    8:30   40.3    32   13.1    59     23.4   775.7    0.00     720    46.3
 117    8:40   42.0    31   12.6    68     20.3   775.8    0.00     749    46.4
 117    8:50   41.4    32   14.0    64     21.6   775.8    0.00     776    46.5
 117    9:00   42.6    30   11.8    65     17.4   775.9    0.00     802    46.6
 117    9:10   42.6    30   12.8    63     25.1   775.9    0.00     829    46.7
 117    9:20   43.3    28   13.2    52     23.5   775.8    0.00     853    46.9
 117    9:30   44.5    26   12.7    59     24.0   775.8    0.00     877    47.0
 117    9:40   45.0    24   14.5    52     26.4   775.6    0.00     899    47.2
 117    9:50   45.5    24   11.1    52     20.0   775.7    0.00     920    47.4
 117   10:00   46.9    23   11.6    58     25.5   775.7    0.00     938    47.6
 117   10:10   47.0    22   12.1    58     24.0   775.7    0.00     955    47.8
 117   10:20   48.2    21   11.2    57     22.3   775.6    0.00     971    48.0
 117   10:30   47.7    21   13.4    58     24.5   775.6    0.00     985    48.2
 117   10:40   48.7    20   10.0    58     19.1   775.7    0.00     997    48.5
 117   10:50   48.6    20   12.3    58     23.5   775.7    0.00    1007    48.7
 117   11:00   48.9    20   13.3    57     22.0   775.6    0.00    1016    49.0
 117   11:10   49.1    19   15.2    57     24.8   775.5    0.00    1024    49.2
 117   11:20   49.1    19   15.3    54     25.9   775.4    0.00    1029    49.5
 117   11:30   49.7    18   18.9    62     30.3   775.2    0.00    1032    49.8
 117   11:40   49.6    18   17.9    56     28.0   775.1    0.00    1034    50.1
 117   11:50   50.6    17   15.5    57     27.6   775.1    0.00    1035    50.4
 117   12:00   51.2    17   15.6    58     26.0   775.0    0.00    1033    50.6
 117   12:10   53.0    15    8.1    56     20.2   775.2    0.00    1030    50.9
 117   12:20   53.0    15    9.9    55     21.5   775.3    0.00    1023    51.2
 117   12:30   53.3    15   11.3    57     21.3   775.2    0.00    1016    51.5
 117   12:40   53.4    15   12.2    63     23.2   775.2    0.00    1006    51.8
 117   12:50   54.9    15   10.1    75     18.7   775.4    0.00     996    52.1
 117   13:00   55.5    15   11.7    73     19.4   775.4    0.00     983    52.4
 117   13:10   55.5    14    6.9    43     14.7   775.4    0.00     970    52.6
 117   13:20   55.4    14    9.2    67     18.4   775.4    0.00     954    52.9
 117   13:30   55.2    16   10.8    81     17.5   775.3    0.00     937    53.2
 117   13:40   55.8    14    9.2    70     13.7   775.3    0.00     918    53.5
 117   13:50   55.2    15    8.5    70     15.8   775.2    0.00     898    53.8
 117   14:00   56.3    15   10.8    92     19.0   775.1    0.00     876    54.1
 117   14:10   54.3    16   12.0   100     20.0   775.0    0.00     852    54.4
 117   14:20   55.9    15   10.4    82     19.6   775.0    0.00     828    54.7
 117   14:30   57.1    14    9.4    79     16.0   774.9    0.00     790    55.0
 117   14:40   56.2    15   12.1    98     19.1   774.8    0.00     769    55.3
 117   14:50   55.4    15   10.6   105     15.5   774.7    0.00     746    55.5
 117   15:00   56.1    14    8.2    96     18.5   774.8    0.00     716    55.8
 117   15:10   56.7    14   11.3    92     17.1   774.6    0.00     685    56.0
 117   15:20   55.5    14   13.1    96     18.5   774.6    0.00     653    56.3
 117   15:30   55.6    14   11.8    92     18.8   774.5    0.00     620    56.5
 117   15:40   56.1    14   12.7   100     17.9   774.5    0.00     587    56.7
 117   15:50   55.7    14   11.8    88     18.2   774.4    0.00     552    56.9
 117   16:00   55.9    14   11.6    74     16.9   774.5    0.00     517    57.1
 117   16:10   55.3    15   14.6    78     21.1   774.3    0.00     482    57.3
 117   16:20   55.0    15   15.8    87     20.4   774.2    0.00     446    57.4
 117   16:30   54.7    15   12.2    79     19.2   774.3    0.00     410    57.5
 117   16:40   54.6    15   12.3    73     18.8   774.3    0.00     373    57.6
 117   16:50   54.2    15   13.4    77     20.0   774.3    0.00     336    57.7
 117   17:00   53.9    15   12.9    85     17.1   774.3    0.00     300    57.8
 117   17:10   53.6    16   12.8    92     19.2   774.4    0.00     263    57.9
 117   17:20   53.3    16   12.0    98     16.0   774.5    0.00     227    57.9
 117   17:30   52.9    17   11.6   105     17.3   774.5    0.00     192    57.9
 117   17:40   52.3    18   12.1   113     15.8   774.5    0.00     159    58.0
 117   17:50   52.1    18   10.7    99     16.4   774.6    0.00     124    58.0
 117   18:00   51.6    18   12.0   114     16.2   774.6    0.00      83    57.9
 117   18:10   51.2    19   13.9   117     17.2   774.5    0.00      48    57.9
 117   18:20   50.8    19   12.9   113     15.8   774.7    0.00      21    57.9
 117   18:30   50.5    19   11.3   109     14.2   774.7    0.00       7    57.8
 117   18:40   50.0    20   12.2   107     15.8   774.8    0.00       2    57.8
 117   18:50   50.2    20   11.5   104     15.7   774.8    0.00       1    57.7
 117   19:00   49.9    20   10.4   103     12.8   774.9    0.00       0    57.6
 117   19:10   49.6    20   10.7   102     14.2   774.9    0.00       0    57.5
 117   19:20   49.3    20   10.5   107     13.5   775.0    0.00       0    57.4
 117   19:30   49.3    20   10.7   106     13.1   775.1    0.00       0    57.3
 117   19:40   49.5    20   10.6   100     14.1   775.2    0.00       0    57.2
 117   19:50   49.5    20    9.9    95     12.2   775.4    0.00       0    57.1
 117   20:00   49.4    20    9.1    96     11.4   775.5    0.00       0    57.0
 117   20:10   49.2    20    8.5   100     10.6   775.5    0.00       0    56.8
 117   20:20   49.5    20    9.8    87     12.1   775.5    0.00       0    56.7
 117   20:30   49.8    20   11.0    70     14.1   775.5    0.00       0    56.6
 117   20:40   50.0    20   10.7    69     13.7   775.6    0.00       0    56.4
 117   20:50   50.1    20   11.4    69     14.9   775.7    0.00       0    56.3

Return to Warm Springs Summit, Nevada graphs page.


Western Regional Climate Center,wrcc@dri.edu